sensor_id;sensor_type;location;lat;lon;timestamp;P1;durP1;ratioP1;P2;durP2;ratioP2
3433;SDS011;1730;41.932;25.548;2022-09-21T00:01:05;3.80;;;1.00;;
3433;SDS011;1730;41.932;25.548;2022-09-21T00:03:35;1.10;;;0.90;;
3433;SDS011;1730;41.932;25.548;2022-09-21T00:06:04;1.67;;;1.07;;
3433;SDS011;1730;41.932;25.548;2022-09-21T00:08:34;1.13;;;0.93;;
3433;SDS011;1730;41.932;25.548;2022-09-21T00:11:01;1.00;;;0.90;;
3433;SDS011;1730;41.932;25.548;2022-09-21T00:13:30;1.30;;;1.20;;
3433;SDS011;1730;41.932;25.548;2022-09-21T00:16:00;2.27;;;1.10;;
3433;SDS011;1730;41.932;25.548;2022-09-21T00:18:28;3.40;;;1.20;;
3433;SDS011;1730;41.932;25.548;2022-09-21T00:20:55;1.83;;;1.10;;
3433;SDS011;1730;41.932;25.548;2022-09-21T00:23:21;1.20;;;1.10;;
3433;SDS011;1730;41.932;25.548;2022-09-21T00:25:47;1.87;;;1.27;;
3433;SDS011;1730;41.932;25.548;2022-09-21T00:28:13;1.43;;;1.10;;
3433;SDS011;1730;41.932;25.548;2022-09-21T00:30:40;1.30;;;1.10;;
3433;SDS011;1730;41.932;25.548;2022-09-21T00:33:06;2.40;;;1.10;;
3433;SDS011;1730;41.932;25.548;2022-09-21T00:35:31;2.33;;;1.00;;
3433;SDS011;1730;41.932;25.548;2022-09-21T00:38:01;1.10;;;1.00;;
3433;SDS011;1730;41.932;25.548;2022-09-21T00:40:27;1.40;;;1.30;;
3433;SDS011;1730;41.932;25.548;2022-09-21T00:43:08;3.10;;;1.03;;
3433;SDS011;1730;41.932;25.548;2022-09-21T00:45:35;3.50;;;1.10;;
3433;SDS011;1730;41.932;25.548;2022-09-21T00:48:02;1.10;;;1.00;;
3433;SDS011;1730;41.932;25.548;2022-09-21T00:50:28;1.47;;;0.90;;
3433;SDS011;1730;41.932;25.548;2022-09-21T00:52:54;1.00;;;0.90;;
3433;SDS011;1730;41.932;25.548;2022-09-21T00:55:26;1.27;;;1.17;;
3433;SDS011;1730;41.932;25.548;2022-09-21T00:57:58;0.93;;;0.83;;
3433;SDS011;1730;41.932;25.548;2022-09-21T01:00:27;1.17;;;1.07;;
3433;SDS011;1730;41.932;25.548;2022-09-21T01:02:53;1.37;;;1.10;;
3433;SDS011;1730;41.932;25.548;2022-09-21T01:05:26;1.03;;;0.93;;
3433;SDS011;1730;41.932;25.548;2022-09-21T01:07:52;1.27;;;1.17;;
3433;SDS011;1730;41.932;25.548;2022-09-21T01:10:21;3.27;;;1.00;;
3433;SDS011;1730;41.932;25.548;2022-09-21T01:18:33;1.70;;;1.00;;
3433;SDS011;1730;41.932;25.548;2022-09-21T01:27:16;2.07;;;1.13;;
3433;SDS011;1730;41.932;25.548;2022-09-21T01:29:31;1.70;;;1.10;;
3433;SDS011;1730;41.932;25.548;2022-09-21T01:32:28;1.20;;;0.97;;
3433;SDS011;1730;41.932;25.548;2022-09-21T01:35:13;1.70;;;1.27;;
3433;SDS011;1730;41.932;25.548;2022-09-21T01:38:07;1.33;;;1.23;;
3433;SDS011;1730;41.932;25.548;2022-09-21T01:40:44;1.20;;;1.10;;
3433;SDS011;1730;41.932;25.548;2022-09-21T01:43:37;1.50;;;1.40;;
3433;SDS011;1730;41.932;25.548;2022-09-21T01:46:03;2.27;;;1.20;;
3433;SDS011;1730;41.932;25.548;2022-09-21T01:48:35;2.10;;;1.30;;
3433;SDS011;1730;41.932;25.548;2022-09-21T01:51:06;3.10;;;1.30;;
3433;SDS011;1730;41.932;25.548;2022-09-21T01:53:45;1.40;;;1.20;;
3433;SDS011;1730;41.932;25.548;2022-09-21T02:01:43;1.50;;;1.40;;
3433;SDS011;1730;41.932;25.548;2022-09-21T02:04:20;1.40;;;1.30;;
3433;SDS011;1730;41.932;25.548;2022-09-21T02:06:46;3.43;;;1.20;;
3433;SDS011;1730;41.932;25.548;2022-09-21T02:09:13;4.43;;;1.60;;
3433;SDS011;1730;41.932;25.548;2022-09-21T02:11:38;1.50;;;1.37;;
3433;SDS011;1730;41.932;25.548;2022-09-21T02:14:08;1.70;;;1.40;;
3433;SDS011;1730;41.932;25.548;2022-09-21T02:16:38;1.40;;;1.30;;
3433;SDS011;1730;41.932;25.548;2022-09-21T02:22:22;3.00;;;1.40;;
3433;SDS011;1730;41.932;25.548;2022-09-21T02:27:37;1.83;;;1.30;;
3433;SDS011;1730;41.932;25.548;2022-09-21T02:30:24;2.70;;;1.40;;
3433;SDS011;1730;41.932;25.548;2022-09-21T02:41:11;3.63;;;1.40;;
3433;SDS011;1730;41.932;25.548;2022-09-21T02:46:27;1.63;;;1.53;;
3433;SDS011;1730;41.932;25.548;2022-09-21T02:49:18;2.33;;;1.50;;
3433;SDS011;1730;41.932;25.548;2022-09-21T02:51:51;1.70;;;1.60;;
3433;SDS011;1730;41.932;25.548;2022-09-21T02:54:23;1.47;;;1.20;;
3433;SDS011;1730;41.932;25.548;2022-09-21T02:56:53;1.30;;;1.20;;
3433;SDS011;1730;41.932;25.548;2022-09-21T02:59:20;2.80;;;1.80;;
3433;SDS011;1730;41.932;25.548;2022-09-21T03:01:48;1.50;;;1.40;;
3433;SDS011;1730;41.932;25.548;2022-09-21T03:04:15;1.90;;;1.47;;
3433;SDS011;1730;41.932;25.548;2022-09-21T03:06:41;1.40;;;1.30;;
3433;SDS011;1730;41.932;25.548;2022-09-21T03:09:07;2.43;;;1.63;;
3433;SDS011;1730;41.932;25.548;2022-09-21T03:11:33;1.60;;;1.50;;
3433;SDS011;1730;41.932;25.548;2022-09-21T03:14:00;1.60;;;1.50;;
3433;SDS011;1730;41.932;25.548;2022-09-21T03:16:29;1.97;;;1.77;;
3433;SDS011;1730;41.932;25.548;2022-09-21T03:18:55;3.53;;;1.57;;
3433;SDS011;1730;41.932;25.548;2022-09-21T03:21:21;2.33;;;1.60;;
3433;SDS011;1730;41.932;25.548;2022-09-21T03:23:47;2.33;;;1.53;;
3433;SDS011;1730;41.932;25.548;2022-09-21T03:26:13;3.17;;;1.63;;
3433;SDS011;1730;41.932;25.548;2022-09-21T03:28:38;7.40;;;1.60;;
3433;SDS011;1730;41.932;25.548;2022-09-21T03:31:04;1.40;;;1.30;;
3433;SDS011;1730;41.932;25.548;2022-09-21T03:33:30;7.03;;;1.60;;
3433;SDS011;1730;41.932;25.548;2022-09-21T03:35:56;1.77;;;1.67;;
3433;SDS011;1730;41.932;25.548;2022-09-21T03:38:22;4.07;;;1.70;;
3433;SDS011;1730;41.932;25.548;2022-09-21T03:40:50;1.77;;;1.67;;
3433;SDS011;1730;41.932;25.548;2022-09-21T03:43:16;2.23;;;1.90;;
3433;SDS011;1730;41.932;25.548;2022-09-21T03:45:42;1.90;;;1.80;;
3433;SDS011;1730;41.932;25.548;2022-09-21T03:48:08;6.73;;;2.23;;
3433;SDS011;1730;41.932;25.548;2022-09-21T03:50:36;1.90;;;1.80;;
3433;SDS011;1730;41.932;25.548;2022-09-21T03:53:02;3.23;;;2.10;;
3433;SDS011;1730;41.932;25.548;2022-09-21T03:55:28;6.00;;;2.10;;
3433;SDS011;1730;41.932;25.548;2022-09-21T03:57:54;2.10;;;2.00;;
3433;SDS011;1730;41.932;25.548;2022-09-21T04:00:20;2.23;;;2.03;;
3433;SDS011;1730;41.932;25.548;2022-09-21T04:02:46;2.70;;;2.50;;
3433;SDS011;1730;41.932;25.548;2022-09-21T04:05:13;2.33;;;2.13;;
3433;SDS011;1730;41.932;25.548;2022-09-21T04:07:40;4.00;;;3.70;;
3433;SDS011;1730;41.932;25.548;2022-09-21T04:10:08;3.87;;;2.83;;
3433;SDS011;1730;41.932;25.548;2022-09-21T04:12:39;2.67;;;2.47;;
3433;SDS011;1730;41.932;25.548;2022-09-21T04:15:08;3.53;;;2.50;;
3433;SDS011;1730;41.932;25.548;2022-09-21T04:17:37;3.77;;;2.33;;
3433;SDS011;1730;41.932;25.548;2022-09-21T04:20:03;2.10;;;2.00;;
3433;SDS011;1730;41.932;25.548;2022-09-21T04:22:29;2.70;;;2.00;;
3433;SDS011;1730;41.932;25.548;2022-09-21T04:24:55;2.80;;;2.60;;
3433;SDS011;1730;41.932;25.548;2022-09-21T04:27:21;3.00;;;2.40;;
3433;SDS011;1730;41.932;25.548;2022-09-21T04:29:48;2.90;;;2.70;;
3433;SDS011;1730;41.932;25.548;2022-09-21T04:32:13;3.13;;;2.93;;
3433;SDS011;1730;41.932;25.548;2022-09-21T04:34:41;5.10;;;2.40;;
3433;SDS011;1730;41.932;25.548;2022-09-21T04:37:07;2.57;;;2.37;;
3433;SDS011;1730;41.932;25.548;2022-09-21T04:39:37;2.70;;;2.50;;
3433;SDS011;1730;41.932;25.548;2022-09-21T04:42:04;5.63;;;2.37;;
3433;SDS011;1730;41.932;25.548;2022-09-21T04:44:30;2.87;;;2.53;;
3433;SDS011;1730;41.932;25.548;2022-09-21T04:46:58;2.53;;;2.43;;
3433;SDS011;1730;41.932;25.548;2022-09-21T04:49:24;4.90;;;2.80;;
3433;SDS011;1730;41.932;25.548;2022-09-21T04:51:50;5.20;;;3.30;;
3433;SDS011;1730;41.932;25.548;2022-09-21T04:54:16;2.47;;;2.27;;
3433;SDS011;1730;41.932;25.548;2022-09-21T04:56:41;5.13;;;2.80;;
3433;SDS011;1730;41.932;25.548;2022-09-21T04:59:08;3.20;;;2.90;;
3433;SDS011;1730;41.932;25.548;2022-09-21T05:01:34;8.80;;;3.33;;
3433;SDS011;1730;41.932;25.548;2022-09-21T05:04:00;9.33;;;3.40;;
3433;SDS011;1730;41.932;25.548;2022-09-21T05:06:30;5.13;;;3.00;;
3433;SDS011;1730;41.932;25.548;2022-09-21T05:08:57;8.57;;;4.33;;
3433;SDS011;1730;41.932;25.548;2022-09-21T05:11:41;3.20;;;3.00;;
3433;SDS011;1730;41.932;25.548;2022-09-21T05:14:07;3.87;;;2.67;;
3433;SDS011;1730;41.932;25.548;2022-09-21T05:16:33;5.03;;;2.77;;
3433;SDS011;1730;41.932;25.548;2022-09-21T05:18:59;11.13;;;3.10;;
3433;SDS011;1730;41.932;25.548;2022-09-21T05:21:25;3.90;;;2.40;;
3433;SDS011;1730;41.932;25.548;2022-09-21T05:23:50;4.73;;;3.00;;
3433;SDS011;1730;41.932;25.548;2022-09-21T05:26:16;2.70;;;2.50;;
3433;SDS011;1730;41.932;25.548;2022-09-21T05:28:42;2.83;;;2.63;;
3433;SDS011;1730;41.932;25.548;2022-09-21T05:34:30;3.57;;;2.53;;
3433;SDS011;1730;41.932;25.548;2022-09-21T05:40:02;4.93;;;1.80;;
3433;SDS011;1730;41.932;25.548;2022-09-21T05:42:29;1.60;;;1.50;;
3433;SDS011;1730;41.932;25.548;2022-09-21T05:44:55;1.80;;;1.70;;
3433;SDS011;1730;41.932;25.548;2022-09-21T05:50:02;3.40;;;3.10;;
3433;SDS011;1730;41.932;25.548;2022-09-21T06:00:25;2.90;;;2.07;;
3433;SDS011;1730;41.932;25.548;2022-09-21T06:05:46;3.40;;;2.20;;
3433;SDS011;1730;41.932;25.548;2022-09-21T06:08:12;2.13;;;1.93;;
3433;SDS011;1730;41.932;25.548;2022-09-21T06:10:38;2.20;;;2.00;;
3433;SDS011;1730;41.932;25.548;2022-09-21T06:13:06;2.60;;;1.90;;
3433;SDS011;1730;41.932;25.548;2022-09-21T06:15:32;3.30;;;2.10;;
3433;SDS011;1730;41.932;25.548;2022-09-21T06:18:03;2.57;;;2.00;;
3433;SDS011;1730;41.932;25.548;2022-09-21T06:20:37;1.90;;;1.80;;
3433;SDS011;1730;41.932;25.548;2022-09-21T06:23:03;4.70;;;2.10;;
3433;SDS011;1730;41.932;25.548;2022-09-21T06:25:36;2.00;;;1.90;;
3433;SDS011;1730;41.932;25.548;2022-09-21T06:28:30;2.37;;;2.17;;
3433;SDS011;1730;41.932;25.548;2022-09-21T06:30:56;2.80;;;2.00;;
3433;SDS011;1730;41.932;25.548;2022-09-21T06:33:22;1.90;;;1.80;;
3433;SDS011;1730;41.932;25.548;2022-09-21T06:35:52;3.00;;;2.57;;
3433;SDS011;1730;41.932;25.548;2022-09-21T06:38:28;4.80;;;1.93;;
3433;SDS011;1730;41.932;25.548;2022-09-21T06:41:01;2.43;;;2.23;;
3433;SDS011;1730;41.932;25.548;2022-09-21T06:43:30;4.17;;;1.80;;
3433;SDS011;1730;41.932;25.548;2022-09-21T06:46:00;3.10;;;2.33;;
3433;SDS011;1730;41.932;25.548;2022-09-21T06:48:27;3.07;;;2.20;;
3433;SDS011;1730;41.932;25.548;2022-09-21T06:50:57;2.00;;;1.90;;
3433;SDS011;1730;41.932;25.548;2022-09-21T06:53:23;5.63;;;2.03;;
3433;SDS011;1730;41.932;25.548;2022-09-21T06:55:50;1.90;;;1.80;;
3433;SDS011;1730;41.932;25.548;2022-09-21T06:58:16;9.23;;;5.70;;
3433;SDS011;1730;41.932;25.548;2022-09-21T07:00:42;2.20;;;2.00;;
3433;SDS011;1730;41.932;25.548;2022-09-21T07:03:11;6.43;;;2.20;;
3433;SDS011;1730;41.932;25.548;2022-09-21T07:05:39;4.90;;;1.80;;
3433;SDS011;1730;41.932;25.548;2022-09-21T07:08:08;3.33;;;2.20;;
3433;SDS011;1730;41.932;25.548;2022-09-21T07:10:34;1.97;;;1.83;;
3433;SDS011;1730;41.932;25.548;2022-09-21T07:13:02;5.10;;;2.10;;
3433;SDS011;1730;41.932;25.548;2022-09-21T07:15:29;4.03;;;2.03;;
3433;SDS011;1730;41.932;25.548;2022-09-21T07:17:55;1.90;;;1.80;;
3433;SDS011;1730;41.932;25.548;2022-09-21T07:20:21;2.67;;;2.03;;
3433;SDS011;1730;41.932;25.548;2022-09-21T07:22:48;3.00;;;2.20;;
3433;SDS011;1730;41.932;25.548;2022-09-21T07:25:15;2.60;;;2.40;;
3433;SDS011;1730;41.932;25.548;2022-09-21T07:27:41;1.87;;;1.77;;
3433;SDS011;1730;41.932;25.548;2022-09-21T07:30:07;3.43;;;1.93;;
3433;SDS011;1730;41.932;25.548;2022-09-21T07:32:34;2.00;;;1.80;;
3433;SDS011;1730;41.932;25.548;2022-09-21T07:37:56;7.97;;;2.20;;
3433;SDS011;1730;41.932;25.548;2022-09-21T07:40:23;2.00;;;1.80;;
3433;SDS011;1730;41.932;25.548;2022-09-21T07:42:49;2.10;;;1.90;;
3433;SDS011;1730;41.932;25.548;2022-09-21T07:45:14;3.50;;;2.10;;
3433;SDS011;1730;41.932;25.548;2022-09-21T07:47:40;2.67;;;2.47;;
3433;SDS011;1730;41.932;25.548;2022-09-21T07:50:06;2.03;;;1.83;;
3433;SDS011;1730;41.932;25.548;2022-09-21T07:52:32;2.17;;;1.80;;
3433;SDS011;1730;41.932;25.548;2022-09-21T07:54:58;1.90;;;1.70;;
3433;SDS011;1730;41.932;25.548;2022-09-21T07:57:23;1.70;;;1.60;;
3433;SDS011;1730;41.932;25.548;2022-09-21T08:02:36;3.83;;;1.97;;
3433;SDS011;1730;41.932;25.548;2022-09-21T08:05:02;2.40;;;1.90;;
3433;SDS011;1730;41.932;25.548;2022-09-21T08:13:34;5.33;;;1.40;;
3433;SDS011;1730;41.932;25.548;2022-09-21T08:18:51;1.90;;;1.80;;
3433;SDS011;1730;41.932;25.548;2022-09-21T08:21:17;4.80;;;1.53;;
3433;SDS011;1730;41.932;25.548;2022-09-21T08:23:43;4.40;;;1.40;;
3433;SDS011;1730;41.932;25.548;2022-09-21T08:26:10;2.80;;;1.30;;
3433;SDS011;1730;41.932;25.548;2022-09-21T08:28:51;4.20;;;1.57;;
3433;SDS011;1730;41.932;25.548;2022-09-21T08:31:18;2.20;;;1.40;;
3433;SDS011;1730;41.932;25.548;2022-09-21T08:33:46;2.30;;;1.80;;
3433;SDS011;1730;41.932;25.548;2022-09-21T08:36:13;1.73;;;1.63;;
3433;SDS011;1730;41.932;25.548;2022-09-21T08:51:13;2.57;;;2.37;;
3433;SDS011;1730;41.932;25.548;2022-09-21T08:53:48;2.70;;;2.50;;
3433;SDS011;1730;41.932;25.548;2022-09-21T08:56:18;3.60;;;2.00;;
3433;SDS011;1730;41.932;25.548;2022-09-21T08:58:46;2.07;;;1.97;;
3433;SDS011;1730;41.932;25.548;2022-09-21T09:01:32;3.57;;;3.37;;
3433;SDS011;1730;41.932;25.548;2022-09-21T09:04:18;3.43;;;2.13;;
3433;SDS011;1730;41.932;25.548;2022-09-21T09:11:40;2.90;;;2.60;;
3433;SDS011;1730;41.932;25.548;2022-09-21T09:14:02;4.27;;;3.93;;
3433;SDS011;1730;41.932;25.548;2022-09-21T09:25:39;1.90;;;1.80;;
3433;SDS011;1730;41.932;25.548;2022-09-21T09:28:19;2.63;;;2.20;;
3433;SDS011;1730;41.932;25.548;2022-09-21T09:30:55;3.30;;;2.97;;
3433;SDS011;1730;41.932;25.548;2022-09-21T09:33:27;3.30;;;3.07;;
3433;SDS011;1730;41.932;25.548;2022-09-21T09:52:10;4.60;;;1.53;;
3433;SDS011;1730;41.932;25.548;2022-09-21T10:04:59;2.67;;;2.33;;
3433;SDS011;1730;41.932;25.548;2022-09-21T10:07:37;4.30;;;2.33;;
3433;SDS011;1730;41.932;25.548;2022-09-21T10:13:12;2.03;;;1.83;;
3433;SDS011;1730;41.932;25.548;2022-09-21T10:15:50;2.30;;;2.10;;
3433;SDS011;1730;41.932;25.548;2022-09-21T10:21:53;1.87;;;1.77;;
3433;SDS011;1730;41.932;25.548;2022-09-21T10:24:02;1.50;;;1.40;;
3433;SDS011;1730;41.932;25.548;2022-09-21T10:26:30;1.40;;;1.30;;
3433;SDS011;1730;41.932;25.548;2022-09-21T10:29:15;1.30;;;1.20;;
3433;SDS011;1730;41.932;25.548;2022-09-21T10:32:00;2.37;;;1.20;;
3433;SDS011;1730;41.932;25.548;2022-09-21T10:34:30;1.73;;;1.40;;
3433;SDS011;1730;41.932;25.548;2022-09-21T10:36:58;1.97;;;1.50;;
3433;SDS011;1730;41.932;25.548;2022-09-21T10:39:47;1.73;;;1.10;;
3433;SDS011;1730;41.932;25.548;2022-09-21T10:42:13;2.17;;;1.30;;
3433;SDS011;1730;41.932;25.548;2022-09-21T10:44:43;1.90;;;1.67;;
3433;SDS011;1730;41.932;25.548;2022-09-21T10:47:21;3.87;;;1.70;;
3433;SDS011;1730;41.932;25.548;2022-09-21T10:49:56;1.40;;;1.30;;
3433;SDS011;1730;41.932;25.548;2022-09-21T10:52:31;2.10;;;1.90;;
3433;SDS011;1730;41.932;25.548;2022-09-21T10:54:59;1.80;;;1.70;;
3433;SDS011;1730;41.932;25.548;2022-09-21T10:57:26;2.10;;;1.90;;
3433;SDS011;1730;41.932;25.548;2022-09-21T10:59:53;2.67;;;1.40;;
3433;SDS011;1730;41.932;25.548;2022-09-21T11:05:00;1.53;;;1.00;;
3433;SDS011;1730;41.932;25.548;2022-09-21T11:10:26;4.37;;;1.20;;
3433;SDS011;1730;41.932;25.548;2022-09-21T11:24:52;1.60;;;1.20;;
3433;SDS011;1730;41.932;25.548;2022-09-21T11:27:32;1.50;;;1.40;;
3433;SDS011;1730;41.932;25.548;2022-09-21T11:38:35;2.60;;;1.00;;
3433;SDS011;1730;41.932;25.548;2022-09-21T11:47:04;2.20;;;2.10;;
3433;SDS011;1730;41.932;25.548;2022-09-21T11:52:43;1.63;;;1.50;;
3433;SDS011;1730;41.932;25.548;2022-09-21T11:55:34;1.37;;;1.10;;
3433;SDS011;1730;41.932;25.548;2022-09-21T11:58:03;4.30;;;1.17;;
3433;SDS011;1730;41.932;25.548;2022-09-21T12:12:33;1.70;;;1.20;;
3433;SDS011;1730;41.932;25.548;2022-09-21T12:15:02;1.20;;;1.10;;
3433;SDS011;1730;41.932;25.548;2022-09-21T12:20:18;1.30;;;1.20;;
3433;SDS011;1730;41.932;25.548;2022-09-21T12:25:51;4.87;;;1.20;;
3433;SDS011;1730;41.932;25.548;2022-09-21T12:28:35;1.87;;;1.13;;
3433;SDS011;1730;41.932;25.548;2022-09-21T12:34:09;1.30;;;0.97;;
3433;SDS011;1730;41.932;25.548;2022-09-21T12:45:34;3.23;;;3.03;;
3433;SDS011;1730;41.932;25.548;2022-09-21T12:48:16;3.50;;;2.17;;
3433;SDS011;1730;41.932;25.548;2022-09-21T12:51:00;1.63;;;1.53;;
3433;SDS011;1730;41.932;25.548;2022-09-21T12:54:04;1.77;;;1.20;;
3433;SDS011;1730;41.932;25.548;2022-09-21T12:57:32;2.30;;;0.90;;
3433;SDS011;1730;41.932;25.548;2022-09-21T13:08:01;5.60;;;1.40;;
3433;SDS011;1730;41.932;25.548;2022-09-21T13:13:31;3.70;;;1.40;;
3433;SDS011;1730;41.932;25.548;2022-09-21T13:16:00;3.40;;;1.40;;
3433;SDS011;1730;41.932;25.548;2022-09-21T13:18:30;1.37;;;1.20;;
3433;SDS011;1730;41.932;25.548;2022-09-21T13:20:59;1.30;;;1.13;;
3433;SDS011;1730;41.932;25.548;2022-09-21T13:23:36;5.20;;;1.50;;
3433;SDS011;1730;41.932;25.548;2022-09-21T13:26:08;3.67;;;1.40;;
3433;SDS011;1730;41.932;25.548;2022-09-21T13:37:12;1.50;;;1.40;;
3433;SDS011;1730;41.932;25.548;2022-09-21T13:39:35;1.50;;;1.40;;
3433;SDS011;1730;41.932;25.548;2022-09-21T13:44:59;7.60;;;1.87;;
3433;SDS011;1730;41.932;25.548;2022-09-21T13:47:38;2.17;;;1.97;;
3433;SDS011;1730;41.932;25.548;2022-09-21T13:52:44;3.20;;;2.13;;
3433;SDS011;1730;41.932;25.548;2022-09-21T13:58:14;1.93;;;1.83;;
3433;SDS011;1730;41.932;25.548;2022-09-21T14:05:59;1.77;;;1.67;;
3433;SDS011;1730;41.932;25.548;2022-09-21T14:08:31;6.80;;;1.43;;
3433;SDS011;1730;41.932;25.548;2022-09-21T14:13:32;1.80;;;1.70;;
3433;SDS011;1730;41.932;25.548;2022-09-21T14:18:52;2.53;;;2.33;;
3433;SDS011;1730;41.932;25.548;2022-09-21T14:21:18;2.23;;;2.13;;
3433;SDS011;1730;41.932;25.548;2022-09-21T14:26:33;4.33;;;2.37;;
3433;SDS011;1730;41.932;25.548;2022-09-21T14:31:51;2.40;;;2.20;;
3433;SDS011;1730;41.932;25.548;2022-09-21T14:34:24;3.87;;;2.30;;
3433;SDS011;1730;41.932;25.548;2022-09-21T14:36:56;4.77;;;2.03;;
3433;SDS011;1730;41.932;25.548;2022-09-21T14:39:29;1.90;;;1.80;;
3433;SDS011;1730;41.932;25.548;2022-09-21T14:42:17;3.80;;;2.00;;
3433;SDS011;1730;41.932;25.548;2022-09-21T14:44:47;1.90;;;1.80;;
3433;SDS011;1730;41.932;25.548;2022-09-21T14:55:46;1.90;;;1.80;;
3433;SDS011;1730;41.932;25.548;2022-09-21T15:09:46;4.13;;;3.83;;
3433;SDS011;1730;41.932;25.548;2022-09-21T15:12:57;6.80;;;4.10;;
3433;SDS011;1730;41.932;25.548;2022-09-21T15:18:24;3.60;;;3.30;;
3433;SDS011;1730;41.932;25.548;2022-09-21T15:20:54;4.07;;;3.13;;
3433;SDS011;1730;41.932;25.548;2022-09-21T15:23:37;2.67;;;2.47;;
3433;SDS011;1730;41.932;25.548;2022-09-21T15:26:08;3.03;;;2.03;;
3433;SDS011;1730;41.932;25.548;2022-09-21T15:28:47;5.60;;;2.40;;
3433;SDS011;1730;41.932;25.548;2022-09-21T15:31:17;5.50;;;2.70;;
3433;SDS011;1730;41.932;25.548;2022-09-21T15:33:43;3.83;;;2.87;;
3433;SDS011;1730;41.932;25.548;2022-09-21T15:36:12;13.47;;;3.43;;
3433;SDS011;1730;41.932;25.548;2022-09-21T15:44:35;3.23;;;2.90;;
3433;SDS011;1730;41.932;25.548;2022-09-21T15:47:10;4.70;;;2.90;;
3433;SDS011;1730;41.932;25.548;2022-09-21T15:49:37;5.00;;;3.20;;
3433;SDS011;1730;41.932;25.548;2022-09-21T16:03:04;2.50;;;2.30;;
3433;SDS011;1730;41.932;25.548;2022-09-21T16:08:33;5.13;;;3.30;;
3433;SDS011;1730;41.932;25.548;2022-09-21T16:11:15;3.00;;;2.80;;
3433;SDS011;1730;41.932;25.548;2022-09-21T16:21:26;7.53;;;6.83;;
3433;SDS011;1730;41.932;25.548;2022-09-21T16:27:01;8.40;;;6.80;;
3433;SDS011;1730;41.932;25.548;2022-09-21T16:29:40;11.73;;;6.70;;
3433;SDS011;1730;41.932;25.548;2022-09-21T16:32:34;19.80;;;9.67;;
3433;SDS011;1730;41.932;25.548;2022-09-21T16:37:59;7.03;;;5.47;;
3433;SDS011;1730;41.932;25.548;2022-09-21T16:43:00;4.30;;;4.00;;
3433;SDS011;1730;41.932;25.548;2022-09-21T16:45:30;4.83;;;4.43;;
3433;SDS011;1730;41.932;25.548;2022-09-21T16:47:59;3.97;;;3.67;;
3433;SDS011;1730;41.932;25.548;2022-09-21T16:50:26;2.23;;;2.13;;
3433;SDS011;1730;41.932;25.548;2022-09-21T16:52:52;2.40;;;2.20;;
3433;SDS011;1730;41.932;25.548;2022-09-21T16:55:18;2.97;;;2.77;;
3433;SDS011;1730;41.932;25.548;2022-09-21T16:57:44;2.60;;;2.40;;
3433;SDS011;1730;41.932;25.548;2022-09-21T17:00:13;2.10;;;2.00;;
3433;SDS011;1730;41.932;25.548;2022-09-21T17:02:47;1.90;;;1.80;;
3433;SDS011;1730;41.932;25.548;2022-09-21T17:05:14;2.53;;;2.43;;
3433;SDS011;1730;41.932;25.548;2022-09-21T17:07:49;2.10;;;1.90;;
3433;SDS011;1730;41.932;25.548;2022-09-21T17:10:18;2.33;;;2.20;;
3433;SDS011;1730;41.932;25.548;2022-09-21T17:12:47;2.50;;;2.33;;
3433;SDS011;1730;41.932;25.548;2022-09-21T17:17:46;3.47;;;3.27;;
3433;SDS011;1730;41.932;25.548;2022-09-21T17:20:19;2.70;;;2.50;;
3433;SDS011;1730;41.932;25.548;2022-09-21T17:22:59;2.90;;;2.70;;
3433;SDS011;1730;41.932;25.548;2022-09-21T17:25:30;2.30;;;2.10;;
3433;SDS011;1730;41.932;25.548;2022-09-21T17:27:57;3.03;;;2.83;;
3433;SDS011;1730;41.932;25.548;2022-09-21T17:30:33;3.30;;;3.00;;
3433;SDS011;1730;41.932;25.548;2022-09-21T17:32:59;3.80;;;2.60;;
3433;SDS011;1730;41.932;25.548;2022-09-21T17:35:32;2.30;;;2.10;;
3433;SDS011;1730;41.932;25.548;2022-09-21T17:38:01;2.67;;;2.57;;
3433;SDS011;1730;41.932;25.548;2022-09-21T17:40:27;2.60;;;2.40;;
3433;SDS011;1730;41.932;25.548;2022-09-21T17:43:13;2.33;;;2.23;;
3433;SDS011;1730;41.932;25.548;2022-09-21T17:48:19;2.57;;;2.37;;
3433;SDS011;1730;41.932;25.548;2022-09-21T17:50:46;2.63;;;2.40;;
3433;SDS011;1730;41.932;25.548;2022-09-21T17:53:13;2.83;;;2.53;;
3433;SDS011;1730;41.932;25.548;2022-09-21T17:55:58;2.13;;;2.03;;
3433;SDS011;1730;41.932;25.548;2022-09-21T17:58:49;3.77;;;2.13;;
3433;SDS011;1730;41.932;25.548;2022-09-21T18:01:32;3.13;;;2.50;;
3433;SDS011;1730;41.932;25.548;2022-09-21T18:04:00;2.87;;;2.03;;
3433;SDS011;1730;41.932;25.548;2022-09-21T18:06:27;2.53;;;2.33;;
3433;SDS011;1730;41.932;25.548;2022-09-21T18:08:53;2.00;;;1.90;;
3433;SDS011;1730;41.932;25.548;2022-09-21T18:19:19;2.57;;;2.47;;
3433;SDS011;1730;41.932;25.548;2022-09-21T18:21:45;3.43;;;2.83;;
3433;SDS011;1730;41.932;25.548;2022-09-21T18:24:26;3.13;;;2.77;;
3433;SDS011;1730;41.932;25.548;2022-09-21T18:26:53;3.23;;;2.47;;
3433;SDS011;1730;41.932;25.548;2022-09-21T18:32:08;3.07;;;2.77;;
3433;SDS011;1730;41.932;25.548;2022-09-21T18:45:52;2.73;;;2.53;;
3433;SDS011;1730;41.932;25.548;2022-09-21T18:48:48;3.07;;;2.87;;
3433;SDS011;1730;41.932;25.548;2022-09-21T18:51:39;8.27;;;2.83;;
3433;SDS011;1730;41.932;25.548;2022-09-21T18:54:07;5.00;;;2.40;;
3433;SDS011;1730;41.932;25.548;2022-09-21T18:56:42;2.43;;;2.27;;
3433;SDS011;1730;41.932;25.548;2022-09-21T18:59:08;2.63;;;2.43;;
3433;SDS011;1730;41.932;25.548;2022-09-21T19:01:35;2.60;;;2.40;;
3433;SDS011;1730;41.932;25.548;2022-09-21T19:04:01;2.70;;;2.50;;
3433;SDS011;1730;41.932;25.548;2022-09-21T19:11:59;2.80;;;2.43;;
3433;SDS011;1730;41.932;25.548;2022-09-21T19:18:00;2.53;;;2.43;;
3433;SDS011;1730;41.932;25.548;2022-09-21T19:20:43;2.83;;;2.70;;
3433;SDS011;1730;41.932;25.548;2022-09-21T19:23:23;2.60;;;2.50;;
3433;SDS011;1730;41.932;25.548;2022-09-21T19:25:56;2.73;;;2.57;;
3433;SDS011;1730;41.932;25.548;2022-09-21T19:31:08;2.40;;;2.20;;
3433;SDS011;1730;41.932;25.548;2022-09-21T19:33:36;2.03;;;1.90;;
3433;SDS011;1730;41.932;25.548;2022-09-21T19:36:01;2.53;;;2.33;;
3433;SDS011;1730;41.932;25.548;2022-09-21T19:38:28;1.90;;;1.80;;
3433;SDS011;1730;41.932;25.548;2022-09-21T19:44:17;7.23;;;2.20;;
3433;SDS011;1730;41.932;25.548;2022-09-21T19:46:58;3.03;;;2.73;;
3433;SDS011;1730;41.932;25.548;2022-09-21T19:49:56;1.97;;;1.80;;
3433;SDS011;1730;41.932;25.548;2022-09-21T19:52:36;2.30;;;2.20;;
3433;SDS011;1730;41.932;25.548;2022-09-21T19:55:02;2.23;;;2.13;;
3433;SDS011;1730;41.932;25.548;2022-09-21T19:57:47;2.70;;;2.50;;
3433;SDS011;1730;41.932;25.548;2022-09-21T20:00:31;2.27;;;2.07;;
3433;SDS011;1730;41.932;25.548;2022-09-21T20:03:01;2.30;;;2.20;;
3433;SDS011;1730;41.932;25.548;2022-09-21T20:05:36;2.33;;;2.10;;
3433;SDS011;1730;41.932;25.548;2022-09-21T20:08:22;2.70;;;2.50;;
3433;SDS011;1730;41.932;25.548;2022-09-21T20:11:06;2.53;;;2.33;;
3433;SDS011;1730;41.932;25.548;2022-09-21T20:13:52;2.10;;;2.00;;
3433;SDS011;1730;41.932;25.548;2022-09-21T20:22:14;2.90;;;2.70;;
3433;SDS011;1730;41.932;25.548;2022-09-21T20:27:20;2.40;;;2.30;;
3433;SDS011;1730;41.932;25.548;2022-09-21T20:30:09;2.50;;;2.40;;
3433;SDS011;1730;41.932;25.548;2022-09-21T20:32:38;3.10;;;2.90;;
3433;SDS011;1730;41.932;25.548;2022-09-21T20:35:25;2.30;;;2.20;;
3433;SDS011;1730;41.932;25.548;2022-09-21T20:37:55;2.63;;;2.53;;
3433;SDS011;1730;41.932;25.548;2022-09-21T20:40:21;2.67;;;2.57;;
3433;SDS011;1730;41.932;25.548;2022-09-21T20:42:50;3.00;;;2.80;;
3433;SDS011;1730;41.932;25.548;2022-09-21T20:45:17;2.47;;;2.37;;
3433;SDS011;1730;41.932;25.548;2022-09-21T20:47:44;2.50;;;2.40;;
3433;SDS011;1730;41.932;25.548;2022-09-21T20:50:12;2.40;;;2.30;;
3433;SDS011;1730;41.932;25.548;2022-09-21T20:52:38;3.00;;;2.40;;
3433;SDS011;1730;41.932;25.548;2022-09-21T20:55:09;4.90;;;2.67;;
3433;SDS011;1730;41.932;25.548;2022-09-21T20:57:38;2.70;;;2.53;;
3433;SDS011;1730;41.932;25.548;2022-09-21T21:00:07;2.97;;;2.77;;
3433;SDS011;1730;41.932;25.548;2022-09-21T21:02:38;2.70;;;2.50;;
3433;SDS011;1730;41.932;25.548;2022-09-21T21:05:04;2.80;;;2.50;;
3433;SDS011;1730;41.932;25.548;2022-09-21T21:07:32;3.97;;;2.90;;
3433;SDS011;1730;41.932;25.548;2022-09-21T21:09:57;2.43;;;2.33;;